Terminal Aerodrome Forecast
Issued by NWS Sterling, VA

Current Version | Previous Version | Text Only | Print | Product List | Glossary Off
Versions: 1 2 3 4 5 6 7 8 9 10 11 12 13 14 15 16 17 18 19 20 21 22 23 24

000
FTUS41 KLWX 252300
TAFDCA
TAF
KDCA 252331Z 2600/2624 10004KT P6SM BKN250
     FM260400 04005KT P6SM OVC250
     FM260500 02004KT P6SM -RA OVC090
     FM260900 02008KT 5SM -RA OVC050
     FM261200 03009KT 5SM -RA SCT015 OVC030
     FM261500 01009KT 2SM RASN OVC003
     FM262000 34010KT 5SM -RASN OVC008
     FM262300 31010KT P6SM OVC008=

USA.gov is the U.S. government's official web portal to all federal, state and local government web resources and services.